Time;durP1;ratioP1;P1;durP2;ratioP2;P2;SDS_P1;SDS_P2;PMS_P1;PMS_P2;Temp;Humidity;BMP_temperature;BMP_pressure;BME280_temperature;BME280_humidity;BME280_pressure;Samples;Min_cycle;Max_cycle;Signal;HPM_P1;HPM_P2
2021/11/18 00:00:53;;;;;;;9.10;5.30;;;;;;;-3.17;76.68;99448.64;102120;1320;61177;-24
2021/11/18 00:03:22;;;;;;;11.70;4.10;;;;;;;-2.98;76.97;99447.77;102284;1313;75613;-23
2021/11/18 00:05:50;;;;;;;16.30;7.30;;;;;;;-2.42;75.10;99452.23;102330;1313;75884;-24
2021/11/18 00:08:19;;;;;;;12.60;5.70;;;;;;;-2.36;74.15;99445.46;102307;1312;74385;-24
2021/11/18 00:10:52;;;;;;;14.30;6.70;;;;;;;-2.60;74.28;99440.72;102259;1313;61134;-23
2021/11/18 00:13:27;;;;;;;11.00;5.90;;;;;;;-2.90;75.36;99434.19;101805;1317;61908;-24
2021/11/18 00:15:56;;;;;;;14.60;6.60;;;;;;;-3.23;76.30;99429.23;101990;1319;74369;-24
2021/11/18 00:18:26;;;;;;;6.20;4.60;;;;;;;-3.45;76.96;99433.86;102150;1319;74888;-24
2021/11/18 00:21:00;;;;;;;11.70;6.50;;;;;;;-3.24;77.21;99436.20;101882;1312;70764;-24
2021/11/18 00:23:50;;;;;;;9.80;6.00;;;;;;;-2.65;75.62;99436.91;101713;1315;61189;-26
2021/11/18 00:26:19;;;;;;;8.10;6.30;;;;;;;-2.62;75.21;99434.63;102126;1315;61805;-25
2021/11/18 00:28:48;;;;;;;10.60;6.30;;;;;;;-2.82;75.89;99435.90;102123;1312;74722;-25
2021/11/18 00:31:19;;;;;;;8.60;4.80;;;;;;;-3.06;76.71;99433.48;102055;1312;76091;-24
2021/11/18 00:33:47;;;;;;;9.70;7.00;;;;;;;-3.27;77.37;99436.27;101696;1317;74442;-24
2021/11/18 00:36:17;;;;;;;20.10;9.10;;;;;;;-3.12;77.70;99435.98;102141;1312;61202;-26
2021/11/18 00:38:45;;;;;;;13.50;6.50;;;;;;;-2.65;75.77;99436.23;102053;1313;61177;-26
2021/11/18 00:41:14;;;;;;;11.10;4.00;;;;;;;-2.59;75.13;99442.91;102256;1319;75632;-26
2021/11/18 00:43:43;;;;;;;15.80;8.40;;;;;;;-2.81;75.80;99445.55;102341;1312;74613;-26
2021/11/18 00:46:11;;;;;;;17.90;7.90;;;;;;;-3.02;76.48;99446.15;102227;1314;73427;-22
2021/11/18 00:48:42;;;;;;;14.90;7.50;;;;;;;-3.25;76.92;99447.42;102176;1315;61182;-23
2021/11/18 00:51:15;;;;;;;17.30;7.40;;;;;;;-3.43;77.22;99449.45;101935;1313;61163;-23
2021/11/18 00:53:47;;;;;;;10.20;5.60;;;;;;;-3.58;77.29;99453.27;101996;1313;74760;-23
2021/11/18 00:56:20;;;;;;;17.90;8.00;;;;;;;-2.97;76.99;99464.90;101779;1316;74140;-24
2021/11/18 00:58:49;;;;;;;20.80;9.50;;;;;;;-2.28;74.82;99473.20;101793;1314;72065;-23
2021/11/18 01:01:18;;;;;;;17.20;8.80;;;;;;;-2.19;74.00;99472.16;102017;1320;61234;-24
2021/11/18 01:03:47;;;;;;;13.30;7.20;;;;;;;-2.39;74.14;99468.51;101709;1315;62172;-23
2021/11/18 01:06:16;;;;;;;16.20;6.90;;;;;;;-2.67;74.49;99461.09;102049;1315;74220;-23
2021/11/18 01:08:44;;;;;;;13.10;5.80;;;;;;;-2.93;75.10;99454.63;102374;1319;76030;-23
2021/11/18 01:11:16;;;;;;;13.10;7.00;;;;;;;-3.15;75.52;99458.46;102207;1313;74581;-23
2021/11/18 01:13:45;;;;;;;8.70;3.30;;;;;;;-3.36;76.25;99451.71;101870;1312;61183;-23
2021/11/18 01:16:22;;;;;;;10.10;6.00;;;;;;;-3.57;77.34;99448.34;101905;1312;347374;-23
2021/11/18 01:18:51;;;;;;;11.00;5.10;;;;;;;-3.42;77.83;99443.49;102146;1313;74268;-23
2021/11/18 01:21:19;;;;;;;17.40;7.20;;;;;;;-2.48;76.62;99448.45;102113;1314;76268;-24
2021/11/18 01:23:48;;;;;;;19.40;9.20;;;;;;;-1.89;74.75;99450.52;102085;1316;74487;-23
2021/11/18 01:26:20;;;;;;;9.70;4.00;;;;;;;-1.87;73.86;99445.40;102031;1319;61717;-23
2021/11/18 01:28:49;;;;;;;17.10;8.00;;;;;;;-2.21;74.08;99441.73;102125;1312;61458;-23
2021/11/18 01:31:19;;;;;;;13.40;6.00;;;;;;;-2.43;75.12;99442.90;102260;1319;73743;-23
2021/11/18 01:33:51;;;;;;;10.30;6.00;;;;;;;-2.62;75.78;99439.73;102062;1320;74860;-23
2021/11/18 01:36:20;;;;;;;12.70;5.00;;;;;;;-2.79;76.46;99433.80;102213;1317;72793;-23
2021/11/18 01:38:56;;;;;;;9.70;5.80;;;;;;;-2.88;76.87;99436.54;102255;1319;61265;-23
2021/11/18 01:41:29;;;;;;;15.60;6.40;;;;;;;-2.48;76.45;99432.29;102315;1313;61177;-23
2021/11/18 01:44:02;;;;;;;13.70;7.20;;;;;;;-1.82;74.53;99435.04;101928;1319;74575;-23
2021/11/18 01:46:33;;;;;;;14.20;6.80;;;;;;;-1.66;73.78;99434.48;102199;1313;75967;-23
2021/11/18 01:49:06;;;;;;;16.30;9.00;;;;;;;-1.94;73.76;99429.70;101805;1316;73547;-23
2021/11/18 01:51:39;;;;;;;20.00;9.00;;;;;;;-2.11;74.82;99425.19;101835;1316;61202;-23
2021/11/18 01:54:07;;;;;;;14.90;7.40;;;;;;;-2.22;74.94;99418.45;101874;1313;61159;-23
2021/11/18 01:56:37;;;;;;;10.90;5.00;;;;;;;-2.35;75.30;99416.89;102120;1313;74378;-23
2021/11/18 01:59:17;;;;;;;10.80;5.70;;;;;;;-2.49;75.77;99419.25;102240;1320;74743;-23
2021/11/18 02:01:58;;;;;;;17.80;7.90;;;;;;;-1.98;75.34;99419.77;101946;1314;74478;-23
2021/11/18 02:04:54;;;;;;;18.70;5.10;;;;;;;-1.37;73.62;99420.65;101728;1316;61284;-24
2021/11/18 02:07:25;;;;;;;13.50;7.30;;;;;;;-1.42;73.05;99419.58;101927;1316;61897;-23
2021/11/18 02:09:53;;;;;;;14.30;6.30;;;;;;;-1.62;73.55;99416.16;102165;1319;75921;-23
2021/11/18 02:12:24;;;;;;;14.30;6.70;;;;;;;-1.81;74.07;99415.44;102119;1316;76193;-23
2021/11/18 02:14:54;;;;;;;16.70;6.50;;;;;;;-2.02;74.66;99415.96;102006;1317;72774;-23
2021/11/18 02:17:25;;;;;;;5.20;3.00;;;;;;;-2.25;75.63;99413.08;102038;1316;61196;-23
2021/11/18 02:20:00;;;;;;;9.90;3.80;;;;;;;-2.02;75.92;99413.57;101714;1319;61190;-23
2021/11/18 02:22:29;;;;;;;8.10;4.40;;;;;;;-1.32;74.19;99407.06;101697;1317;74148;-23
2021/11/18 02:25:00;;;;;;;6.00;3.80;;;;;;;-1.29;73.39;99402.36;102027;1316;73401;-23
2021/11/18 02:27:30;;;;;;;9.20;5.40;;;;;;;-1.39;73.72;99403.14;101739;1315;74644;-23
2021/11/18 02:29:59;;;;;;;15.30;6.70;;;;;;;-1.63;74.23;99398.98;101724;1314;61114;-23
2021/11/18 02:32:33;;;;;;;10.90;6.00;;;;;;;-1.87;75.09;99394.50;101824;1316;61144;-23
2021/11/18 02:35:07;;;;;;;11.10;6.40;;;;;;;-2.09;75.84;99392.48;101928;1316;73628;-23
2021/11/18 02:37:35;;;;;;;6.90;4.70;;;;;;;-1.96;76.15;99393.52;101880;1316;76114;-23
2021/11/18 02:40:04;;;;;;;15.30;7.90;;;;;;;-1.33;74.82;99394.80;102056;1319;74439;-23
2021/11/18 02:42:33;;;;;;;12.60;6.10;;;;;;;-1.23;73.66;99398.48;102294;1320;61085;-22
2021/11/18 02:45:05;;;;;;;14.20;6.40;;;;;;;-1.37;73.94;99400.87;102247;1318;62437;-23
2021/11/18 02:47:34;;;;;;;10.00;5.30;;;;;;;-1.62;74.71;99399.48;101693;1316;75642;-23
2021/11/18 02:50:05;;;;;;;9.10;5.20;;;;;;;-1.83;75.42;99390.98;102004;1313;76102;-22
2021/11/18 02:52:40;;;;;;;7.10;4.40;;;;;;;-1.97;75.93;99386.92;102246;1316;74164;-22
2021/11/18 02:55:19;;;;;;;10.70;5.70;;;;;;;-1.99;76.70;99391.73;101876;1319;61204;-23
2021/11/18 02:57:49;;;;;;;10.60;4.80;;;;;;;-1.30;75.05;99386.89;101975;1316;61214;-22
2021/11/18 03:00:21;;;;;;;14.10;7.60;;;;;;;-1.05;73.91;99383.31;102228;1313;75370;-22
2021/11/18 03:02:49;;;;;;;13.10;5.90;;;;;;;-1.08;73.68;99378.09;101907;1315;75266;-22
2021/11/18 03:05:18;;;;;;;9.00;5.10;;;;;;;-1.33;74.21;99377.60;102098;1317;72448;-23
2021/11/18 03:07:50;;;;;;;10.90;4.70;;;;;;;-1.58;75.30;99380.31;101859;1316;61574;-22
2021/11/18 03:10:21;;;;;;;13.00;7.10;;;;;;;-1.80;76.01;99382.56;101867;1318;61300;-23
2021/11/18 03:12:50;;;;;;;14.30;5.20;;;;;;;-1.60;76.43;99382.56;101680;1316;75950;-22
2021/11/18 03:15:19;;;;;;;16.30;9.00;;;;;;;-0.98;74.22;99387.73;101888;1313;74486;-23
2021/11/18 03:18:01;;;;;;;11.30;5.90;;;;;;;-0.89;73.60;99384.55;102140;1317;72693;-23
2021/11/18 03:20:32;;;;;;;19.80;8.50;;;;;;;-1.10;74.22;99384.29;102122;1315;61134;-23
2021/11/18 03:23:02;;;;;;;20.80;9.60;;;;;;;-1.30;74.73;99378.89;102152;1313;61788;-22
2021/11/18 03:25:33;;;;;;;12.90;7.50;;;;;;;-1.58;75.84;99381.50;101831;1315;75426;-22
2021/11/18 03:28:08;;;;;;;13.90;5.50;;;;;;;-1.78;76.75;99382.71;101933;1315;75791;-23
2021/11/18 03:30:40;;;;;;;10.00;6.60;;;;;;;-1.50;76.47;99383.85;102011;1312;74327;-23
2021/11/18 03:33:12;;;;;;;22.10;9.60;;;;;;;-0.89;74.50;99382.67;101817;1313;61207;-24
2021/11/18 03:35:41;;;;;;;27.20;11.30;;;;;;;-0.77;73.77;99384.02;101656;1317;62163;-23
2021/11/18 03:38:11;;;;;;;12.20;6.50;;;;;;;-0.92;74.18;99388.92;102210;1312;73875;-24
2021/11/18 03:40:40;;;;;;;21.00;9.00;;;;;;;-1.10;74.97;99390.42;102019;1314;73475;-24
2021/11/18 03:43:09;;;;;;;22.80;9.80;;;;;;;-1.28;75.42;99386.65;102177;1317;74604;-24
2021/11/18 03:45:39;;;;;;;17.80;7.70;;;;;;;-1.53;76.56;99383.09;102143;1312;61120;-24
2021/11/18 03:48:08;;;;;;;12.60;6.10;;;;;;;-1.65;77.71;99381.01;102152;1312;61941;-23
2021/11/18 03:50:38;;;;;;;17.60;8.30;;;;;;;-0.98;76.15;99383.45;101980;1316;74859;-24
2021/11/18 03:53:06;;;;;;;10.20;6.10;;;;;;;-0.39;74.27;99378.14;102172;1319;74480;-24
2021/11/18 03:55:35;;;;;;;22.60;9.90;;;;;;;-0.45;74.23;99372.34;101944;1316;74496;-23
2021/11/18 03:58:06;;;;;;;21.00;10.40;;;;;;;-0.52;74.50;99368.65;101876;1314;61224;-23
2021/11/18 04:00:39;;;;;;;18.00;6.60;;;;;;;-0.67;74.57;99368.73;101745;1315;62464;-24
2021/11/18 04:03:11;;;;;;;26.20;11.00;;;;;;;-0.91;75.42;99368.94;102041;1313;75831;-24
2021/11/18 04:05:41;;;;;;;12.40;6.60;;;;;;;-1.15;76.15;99366.54;101637;1317;76145;-25
2021/11/18 04:08:09;;;;;;;20.50;10.00;;;;;;;-1.32;77.83;99368.21;101839;1319;73637;-23
2021/11/18 04:10:39;;;;;;;15.70;7.60;;;;;;;-0.74;76.58;99371.85;102107;1319;61192;-24
2021/11/18 04:13:09;;;;;;;29.70;12.70;;;;;;;-0.41;75.39;99368.98;101706;1315;62153;-23
2021/11/18 04:15:38;;;;;;;25.30;11.40;;;;;;;-0.48;75.45;99368.00;101704;1318;75950;-24
2021/11/18 04:18:08;;;;;;;22.40;8.70;;;;;;;-0.70;75.94;99364.91;101901;1316;76593;-23
2021/11/18 04:20:38;;;;;;;22.30;10.70;;;;;;;-1.11;77.50;99361.67;102140;1318;73273;-24
2021/11/18 04:23:07;;;;;;;11.30;6.30;;;;;;;-1.27;78.37;99358.20;101790;1319;61119;-24
2021/11/18 04:25:37;;;;;;;16.90;9.10;;;;;;;-1.09;78.72;99356.49;102135;1313;61189;-24
2021/11/18 04:28:06;;;;;;;27.70;12.10;;;;;;;-0.54;77.01;99361.70;101796;1319;74215;-24
2021/11/18 04:30:38;;;;;;;19.30;8.00;;;;;;;-0.45;76.30;99364.49;101827;1315;73269;-23
2021/11/18 04:33:27;;;;;;;28.80;7.80;;;;;;;-0.70;77.10;99364.58;102031;1320;73577;-23
2021/11/18 04:35:56;;;;;;;28.00;12.40;;;;;;;-1.00;78.01;99359.14;101742;1316;61221;-23
2021/11/18 04:38:27;;;;;;;18.80;8.80;;;;;;;-1.22;78.76;99353.46;102197;1313;61635;-23
2021/11/18 04:40:55;;;;;;;23.00;9.70;;;;;;;-1.19;79.78;99353.20;102160;1315;75623;-24
2021/11/18 04:43:23;;;;;;;22.00;7.90;;;;;;;-0.68;78.29;99354.61;102282;1319;74602;-24
2021/11/18 04:45:55;;;;;;;23.00;10.00;;;;;;;-0.54;77.87;99349.61;102188;1319;74576;-23
2021/11/18 04:48:25;;;;;;;25.00;11.20;;;;;;;-0.61;77.68;99349.30;101973;1318;61683;-23
2021/11/18 04:50:55;;;;;;;17.10;7.50;;;;;;;-0.88;78.64;99350.27;102132;1319;61781;-23
2021/11/18 04:53:26;;;;;;;24.50;11.00;;;;;;;-1.09;79.13;99349.83;101726;1314;75729;-24
2021/11/18 04:55:58;;;;;;;20.20;8.80;;;;;;;-1.23;79.70;99352.46;101986;1319;75883;-24
2021/11/18 04:58:30;;;;;;;22.90;9.50;;;;;;;-0.74;79.40;99354.11;101782;1313;73283;-23
2021/11/18 05:00:59;;;;;;;21.50;10.30;;;;;;;-0.26;77.34;99353.16;102163;1314;61120;-23
2021/11/18 05:03:28;;;;;;;31.80;11.20;;;;;;;-0.31;77.56;99350.94;101972;1315;61130;-23
2021/11/18 05:05:56;;;;;;;19.40;8.90;;;;;;;-0.47;78.03;99352.27;101920;1319;74778;-24
2021/11/18 05:08:25;;;;;;;18.70;8.10;;;;;;;-0.66;78.15;99355.77;102351;1313;75841;-24
2021/11/18 05:10:55;;;;;;;21.10;8.20;;;;;;;-0.94;79.29;99363.92;102305;1317;74226;-23
2021/11/18 05:13:25;;;;;;;21.70;9.70;;;;;;;-1.19;80.41;99365.83;102189;1314;61264;-24
2021/11/18 05:16:03;;;;;;;27.00;10.00;;;;;;;-1.01;80.50;99371.42;102209;1313;61161;-23
2021/11/18 05:18:32;;;;;;;29.90;11.40;;;;;;;-0.29;78.45;99367.41;102130;1317;74650;-24
2021/11/18 05:21:01;;;;;;;29.30;11.10;;;;;;;-0.11;77.45;99365.14;102194;1313;74870;-24
2021/11/18 05:23:36;;;;;;;27.00;10.50;;;;;;;-0.25;77.70;99373.42;102142;1319;74398;-23
2021/11/18 05:26:06;;;;;;;25.00;11.00;;;;;;;-0.50;78.25;99376.92;101659;1317;61253;-24
2021/11/18 05:28:34;;;;;;;29.20;11.50;;;;;;;-0.67;78.74;99392.61;101845;1314;62303;-24
2021/11/18 05:31:06;;;;;;;17.40;8.80;;;;;;;-0.87;78.94;99389.30;102067;1319;75614;-24
2021/11/18 05:33:42;;;;;;;28.40;10.30;;;;;;;-1.03;80.35;99382.75;102059;1319;74499;-24
2021/11/18 05:36:11;;;;;;;24.30;10.80;;;;;;;-0.40;79.30;99384.64;102081;1313;74723;-23
2021/11/18 05:38:40;;;;;;;20.20;9.90;;;;;;;0.03;77.67;99379.02;101855;1318;61175;-23
2021/11/18 05:41:09;;;;;;;33.90;11.00;;;;;;;-0.06;77.56;99377.10;101620;1317;61647;-24
2021/11/18 05:43:40;;;;;;;21.20;9.40;;;;;;;-0.34;78.41;99374.89;101717;1319;75407;-24
2021/11/18 05:46:10;;;;;;;23.00;12.10;;;;;;;-0.69;79.84;99372.88;101873;1315;72462;-24
2021/11/18 05:48:39;;;;;;;20.50;10.00;;;;;;;-0.88;80.43;99379.75;101891;1313;72280;-24
2021/11/18 05:51:08;;;;;;;11.70;5.50;;;;;;;-1.09;81.78;99382.22;102146;1313;61253;-23
2021/11/18 05:53:39;;;;;;;15.70;7.50;;;;;;;-0.74;81.56;99381.91;101663;1319;61175;-24
2021/11/18 05:56:10;;;;;;;23.00;10.80;;;;;;;-0.39;80.32;99383.94;101719;1315;72474;-24
2021/11/18 05:58:40;;;;;;;28.70;12.90;;;;;;;-0.36;80.05;99387.09;101770;1319;76150;-25
2021/11/18 06:01:08;;;;;;;33.90;12.10;;;;;;;-0.46;80.19;99389.61;101777;1313;74444;-25
2021/11/18 06:03:39;;;;;;;26.40;10.00;;;;;;;-0.71;81.06;99390.69;101932;1314;61193;-25
2021/11/18 06:06:10;;;;;;;18.20;7.50;;;;;;;-0.85;81.72;99387.86;101688;1317;61271;-24
2021/11/18 06:08:39;;;;;;;21.40;7.50;;;;;;;-0.51;81.35;99389.23;101917;1318;74767;-25
2021/11/18 06:11:09;;;;;;;15.50;7.10;;;;;;;-0.16;80.29;99386.29;101925;1313;75450;-24
2021/11/18 06:13:38;;;;;;;27.80;11.80;;;;;;;-0.12;79.91;99390.46;102213;1317;74485;-25
2021/11/18 06:16:07;;;;;;;28.90;11.50;;;;;;;-0.25;80.21;99392.55;102099;1317;61317;-26
2021/11/18 06:18:37;;;;;;;15.00;7.10;;;;;;;-0.48;80.76;99390.70;102008;1313;61118;-23
2021/11/18 06:21:11;;;;;;;;;;;;;;;-0.67;81.65;99391.95;101867;1313;72672;-23
2021/11/18 06:23:40;;;;;;;22.30;9.10;;;;;;;-0.51;81.64;99391.98;102182;1317;75097;-23
2021/11/18 06:26:08;;;;;;;21.30;9.30;;;;;;;0.21;79.34;99398.08;101862;1314;74226;-23
2021/11/18 06:28:37;;;;;;;24.20;10.50;;;;;;;0.41;78.36;99400.13;102107;1314;61207;-23
2021/11/18 06:31:09;;;;;;;16.80;7.70;;;;;;;0.22;78.59;99405.71;102185;1312;61223;-22
2021/11/18 06:33:44;;;;;;;15.30;6.70;;;;;;;-0.18;80.10;99395.23;101690;1317;75379;-23
2021/11/18 06:36:13;;;;;;;32.50;13.40;;;;;;;-0.36;81.02;99395.27;101863;1320;75905;-23
2021/11/18 06:38:42;;;;;;;21.00;9.00;;;;;;;-0.49;81.49;99396.19;101975;1314;74451;-23
2021/11/18 06:41:11;;;;;;;17.60;8.40;;;;;;;-0.06;80.60;99394.49;101651;1320;61140;-23
2021/11/18 06:43:40;;;;;;;22.10;11.20;;;;;;;0.31;79.10;99388.70;101859;1314;61129;-23
2021/11/18 06:46:11;;;;;;;24.40;10.40;;;;;;;0.35;78.65;99394.52;101983;1312;75646;-23
2021/11/18 06:48:39;;;;;;;27.60;13.00;;;;;;;0.17;79.34;99392.06;101913;1314;75192;-23
2021/11/18 06:51:18;;;;;;;15.30;7.80;;;;;;;-0.10;80.04;99384.39;101996;1317;74754;-23
2021/11/18 06:53:46;;;;;;;18.40;7.80;;;;;;;-0.20;80.85;99382.31;101890;1315;61526;-23
2021/11/18 06:56:18;;;;;;;27.30;10.30;;;;;;;0.39;79.16;99383.12;102133;1316;62228;-23
2021/11/18 06:58:48;;;;;;;28.60;10.60;;;;;;;0.49;78.64;99381.58;102018;1317;74736;-23
2021/11/18 07:01:17;;;;;;;22.60;9.70;;;;;;;0.45;78.46;99381.89;101929;1320;76285;-23
2021/11/18 07:03:46;;;;;;;21.30;10.00;;;;;;;0.24;79.16;99380.21;101923;1313;74193;-23
2021/11/18 07:06:16;;;;;;;28.30;8.80;;;;;;;0.02;79.87;99377.15;102060;1320;61186;-23
2021/11/18 07:08:45;;;;;;;38.10;13.70;;;;;;;0.09;80.58;99373.35;101707;1319;62619;-23
2021/11/18 07:11:14;;;;;;;27.60;11.70;;;;;;;0.66;78.77;99382.02;102096;1316;74898;-23
2021/11/18 07:13:43;;;;;;;10.70;6.50;;;;;;;0.84;77.80;99378.16;101729;1315;75008;-23
2021/11/18 07:16:21;;;;;;;26.10;11.80;;;;;;;0.58;78.38;99377.36;101810;1318;73516;-23
2021/11/18 07:18:50;;;;;;;19.80;9.10;;;;;;;0.26;79.45;99376.20;101776;1319;61272;-23
2021/11/18 07:21:22;;;;;;;29.30;10.50;;;;;;;0.05;80.33;99369.21;101866;1314;61173;-23
2021/11/18 07:23:53;;;;;;;29.40;9.80;;;;;;;0.36;80.00;99370.77;101750;1314;75425;-23
2021/11/18 07:26:22;;;;;;;35.60;14.60;;;;;;;0.62;78.95;99368.85;101801;1320;74461;-23
2021/11/18 07:28:51;;;;;;;19.00;9.00;;;;;;;0.67;78.56;99373.44;102182;1314;74208;-23
2021/11/18 07:31:20;;;;;;;20.00;10.00;;;;;;;0.53;78.77;99370.69;102054;1313;61191;-23
2021/11/18 07:33:50;;;;;;;28.70;11.00;;;;;;;0.18;80.01;99368.96;101868;1313;61139;-23
2021/11/18 07:36:19;;;;;;;29.20;13.20;;;;;;;0.42;80.05;99370.56;102276;1312;75610;-24
2021/11/18 07:38:47;;;;;;;25.40;11.70;;;;;;;0.94;78.31;99373.52;102159;1316;76526;-23
2021/11/18 07:41:16;;;;;;;32.40;15.80;;;;;;;1.02;77.54;99372.37;102168;1312;74538;-23
2021/11/18 07:43:54;;;;;;;32.90;14.70;;;;;;;0.91;78.12;99370.55;102119;1317;61122;-23
2021/11/18 07:47:05;;;;;;;30.20;12.60;;;;;;;0.67;78.47;99369.00;102119;1313;61071;-24
2021/11/18 07:49:34;;;;;;;22.60;10.80;;;;;;;0.55;79.23;99373.36;101881;1314;74213;-24
2021/11/18 07:52:03;;;;;;;32.20;14.00;;;;;;;1.25;78.19;99378.18;101963;1317;76186;-24
2021/11/18 07:54:31;;;;;;;25.70;10.50;;;;;;;1.74;75.83;99379.73;101789;1314;74202;-24
2021/11/18 07:57:05;;;;;;;29.30;14.10;;;;;;;1.59;75.69;99383.93;102042;1313;61090;-24
2021/11/18 07:59:35;;;;;;;32.80;15.20;;;;;;;1.42;76.21;99403.19;102129;1314;61914;-24
2021/11/18 08:02:04;;;;;;;22.20;9.60;;;;;;;1.22;76.89;99402.60;101763;1314;74452;-24
2021/11/18 08:04:34;;;;;;;27.50;13.30;;;;;;;0.95;77.98;99398.42;101859;1320;74306;-24
2021/11/18 08:07:04;;;;;;;22.90;8.80;;;;;;;0.85;78.51;99409.73;102029;1314;74745;-24
2021/11/18 08:09:33;;;;;;;32.40;14.20;;;;;;;1.31;77.86;99396.94;101787;1314;61636;-24
2021/11/18 08:12:04;;;;;;;29.40;11.90;;;;;;;1.86;75.84;99409.41;101881;1313;61529;-24
2021/11/18 08:14:33;;;;;;;33.00;13.70;;;;;;;1.92;75.39;99387.77;101925;1314;75497;-24
2021/11/18 08:17:02;;;;;;;31.20;14.70;;;;;;;1.75;75.49;99404.01;102340;1314;74576;-24
2021/11/18 08:19:30;;;;;;;20.70;9.50;;;;;;;1.46;75.92;99396.05;102155;1316;73491;-24
2021/11/18 08:22:09;;;;;;;20.50;9.60;;;;;;;1.01;77.66;99393.77;102220;1314;61145;-24
2021/11/18 08:24:37;;;;;;;22.60;10.80;;;;;;;0.93;78.76;99394.08;101831;1314;61155;-24
2021/11/18 08:27:06;;;;;;;28.60;12.50;;;;;;;1.69;77.46;99390.85;102305;1316;74214;-24
2021/11/18 08:29:36;;;;;;;35.70;15.90;;;;;;;2.28;74.94;99391.28;102253;1315;74890;-24
2021/11/18 08:32:06;;;;;;;33.70;15.50;;;;;;;2.17;74.31;99392.55;102162;1316;73284;-24
2021/11/18 08:34:55;;;;;;;32.10;13.80;;;;;;;1.88;74.99;99399.23;102221;1317;62442;-24
2021/11/18 08:37:23;;;;;;;20.00;9.50;;;;;;;1.69;75.86;99391.58;102266;1312;61091;-22
2021/11/18 08:39:52;;;;;;;32.50;14.60;;;;;;;1.40;76.58;99389.95;102300;1313;75561;-22
2021/11/18 08:42:23;;;;;;;18.40;8.40;;;;;;;1.26;76.93;99392.50;102273;1312;75458;-22
2021/11/18 08:44:56;;;;;;;27.00;11.70;;;;;;;1.55;76.96;99387.30;101989;1314;74422;-23
2021/11/18 08:47:26;;;;;;;34.30;15.80;;;;;;;1.95;75.69;99390.55;102066;1313;62220;-22
2021/11/18 08:49:59;;;;;;;25.80;12.00;;;;;;;1.98;75.49;99384.63;102175;1314;61839;-24
2021/11/18 08:52:31;;;;;;;29.50;14.00;;;;;;;1.72;75.74;99385.11;101696;1314;75621;-24
2021/11/18 08:55:00;;;;;;;25.70;12.10;;;;;;;1.56;76.11;99382.48;101651;1316;74620;-24
2021/11/18 08:57:29;;;;;;;29.60;13.40;;;;;;;1.22;77.61;99375.40;101722;1313;73843;-24
2021/11/18 09:00:34;;;;;;;33.00;15.10;;;;;;;1.50;77.24;99376.39;101859;1314;61255;-24
2021/11/18 09:03:24;;;;;;;16.90;9.30;;;;;;;1.95;75.89;99376.00;101768;1312;61256;-24
2021/11/18 09:05:53;;;;;;;27.50;12.40;;;;;;;2.04;75.50;99374.25;101776;1315;74875;-24
2021/11/18 09:08:24;;;;;;;16.50;8.70;;;;;;;1.66;76.29;99366.52;102100;1314;74917;-23
2021/11/18 09:10:57;;;;;;;33.10;14.60;;;;;;;1.47;76.92;99363.50;102085;1317;74494;-24
2021/11/18 09:13:28;;;;;;;23.90;12.80;;;;;;;1.32;77.29;99359.44;102117;1314;61112;-24
2021/11/18 09:15:57;;;;;;;21.90;13.10;;;;;;;1.50;77.47;99357.58;101994;1314;61175;-24
2021/11/18 09:18:30;;;;;;;24.10;11.20;;;;;;;2.01;76.13;99355.38;102144;1313;262754;-24
2021/11/18 09:20:59;;;;;;;16.90;8.80;;;;;;;2.07;75.18;99355.81;102307;1312;76111;-23
2021/11/18 09:23:32;;;;;;;18.40;12.30;;;;;;;1.87;75.56;99358.51;102161;1313;73129;-23
2021/11/18 09:26:03;;;;;;;26.30;13.70;;;;;;;1.55;76.39;99355.98;102245;1314;61185;-23
2021/11/18 09:28:31;;;;;;;16.40;7.90;;;;;;;1.25;77.69;99354.40;102155;1314;61970;-23
2021/11/18 09:31:10;;;;;;;24.70;13.20;;;;;;;1.54;77.55;99347.98;102192;1317;75563;-23
2021/11/18 09:33:39;;;;;;;25.00;12.50;;;;;;;2.07;75.88;99346.58;101803;1315;73775;-23
2021/11/18 09:36:14;;;;;;;35.10;16.10;;;;;;;1.99;75.50;99348.27;102119;1314;74426;-23
2021/11/18 09:38:44;;;;;;;16.50;9.70;;;;;;;1.90;76.03;99347.77;102311;1319;61207;-23
2021/11/18 09:41:15;;;;;;;25.90;12.50;;;;;;;1.59;77.00;99341.96;102147;1313;62177;-23
2021/11/18 09:43:55;;;;;;;24.00;9.30;;;;;;;1.42;77.31;99332.54;102313;1313;73776;-25
2021/11/18 09:46:45;;;;;;;26.50;13.30;;;;;;;1.71;77.24;99337.91;101691;1316;76046;-24
2021/11/18 09:49:50;;;;;;;25.90;14.60;;;;;;;2.24;75.34;99338.83;101971;1313;74557;-24
2021/11/18 09:52:41;;;;;;;30.40;14.50;;;;;;;2.13;75.40;99341.70;102218;1313;62172;-22
2021/11/18 09:55:13;;;;;;;29.60;15.40;;;;;;;1.98;75.66;99338.03;101921;1317;61036;-23
2021/11/18 09:58:06;;;;;;;18.30;9.00;;;;;;;1.71;76.53;99335.88;102263;1312;75698;-23
2021/11/18 10:01:00;;;;;;;25.80;12.70;;;;;;;1.53;77.48;99329.02;102187;1316;76078;-23
2021/11/18 10:03:55;;;;;;;28.40;14.20;;;;;;;1.98;76.92;99338.21;102188;1315;74410;-23
2021/11/18 10:06:27;;;;;;;;;;;;;;;2.55;74.78;99342.31;101974;1315;61445;-24
2021/11/18 10:09:26;;;;;;;27.50;13.80;;;;;;;2.56;74.51;99339.88;101751;1315;61607;-23
2021/11/18 10:12:23;;;;;;;21.30;10.00;;;;;;;2.20;75.34;99330.92;101751;1313;72671;-24
2021/11/18 10:15:02;;;;;;;32.50;15.40;;;;;;;1.91;76.24;99322.89;102065;1313;73162;-23
2021/11/18 10:17:36;;;;;;;31.80;14.80;;;;;;;1.62;77.62;99319.27;101841;1313;73597;-24
2021/11/18 10:20:33;;;;;;;20.40;12.30;;;;;;;2.08;77.09;99318.91;101676;1315;61651;-24
2021/11/18 10:23:05;;;;;;;26.40;13.70;;;;;;;2.55;75.06;99320.20;101965;1314;62099;-24
2021/11/18 10:25:37;;;;;;;36.90;17.70;;;;;;;2.53;74.91;99315.33;102081;1314;72592;-23
2021/11/18 10:28:20;;;;;;;29.80;12.10;;;;;;;2.34;75.39;99311.67;101733;1314;75168;-24
2021/11/18 10:30:54;;;;;;;24.60;12.40;;;;;;;2.07;76.03;99310.94;101842;1314;74462;-24
2021/11/18 10:33:28;;;;;;;28.80;12.90;;;;;;;1.84;76.93;99305.38;101883;1312;61330;-24
2021/11/18 10:36:08;;;;;;;19.90;8.90;;;;;;;1.87;77.54;99303.90;101890;1316;61136;-23
2021/11/18 10:38:58;;;;;;;25.70;12.50;;;;;;;2.58;75.48;99305.66;102035;1312;74824;-23
2021/11/18 10:43:00;;;;;;;27.30;14.00;;;;;;;2.76;74.43;99307.77;98880;1352;600497;-24
2021/11/18 10:45:40;;;;;;;21.80;11.60;;;;;;;2.60;74.68;99306.59;101247;1326;62179;-24
2021/11/18 10:48:22;;;;;;;20.70;10.60;;;;;;;2.22;75.83;99303.95;100837;1329;61348;-24
2021/11/18 10:51:13;;;;;;;29.10;12.80;;;;;;;1.85;77.38;99306.17;100893;1328;73850;-24
2021/11/18 10:53:56;;;;;;;32.30;14.90;;;;;;;2.43;76.93;99309.06;101172;1326;76145;-24
2021/11/18 10:56:47;;;;;;;21.50;12.40;;;;;;;2.94;74.83;99300.83;101090;1326;181423;-24
2021/11/18 10:59:33;;;;;;;27.60;14.20;;;;;;;2.95;74.42;99296.30;101403;1323;61593;-24
2021/11/18 11:02:01;;;;;;;27.50;12.60;;;;;;;2.72;74.99;99299.02;101465;1326;62589;-22
2021/11/18 11:04:40;;;;;;;25.60;11.30;;;;;;;2.45;75.62;99298.69;101560;1323;73873;-21
2021/11/18 11:07:08;;;;;;;24.20;11.80;;;;;;;2.24;76.38;99300.10;101513;1322;75426;-24
2021/11/18 11:09:40;;;;;;;25.60;13.70;;;;;;;2.19;77.33;99301.88;101351;1322;72916;-24
2021/11/18 11:12:11;;;;;;;29.50;14.30;;;;;;;2.81;75.82;99294.70;101274;1326;61255;-24
2021/11/18 11:15:10;;;;;;;32.40;15.70;;;;;;;3.04;74.69;99291.77;101098;1323;61276;-24
2021/11/18 11:18:16;;;;;;;29.20;13.60;;;;;;;2.88;75.36;99287.35;101160;1323;73979;-24
2021/11/18 11:20:53;;;;;;;32.80;16.30;;;;;;;2.68;75.64;99286.88;101581;1322;74768;-24
2021/11/18 11:23:28;;;;;;;26.50;14.30;;;;;;;2.55;76.09;99289.35;101569;1326;72788;-24
2021/11/18 11:26:21;;;;;;;34.30;11.00;;;;;;;2.47;76.21;99287.83;101436;1323;61680;-24
2021/11/18 11:29:24;;;;;;;19.30;9.40;;;;;;;3.18;75.67;99290.11;101519;1320;61173;-24
2021/11/18 11:32:11;;;;;;;26.20;11.20;;;;;;;3.67;73.79;99289.12;101158;1322;73784;-24
2021/11/18 11:34:47;;;;;;;31.00;13.20;;;;;;;3.52;73.70;99290.08;101276;1326;76046;-24
2021/11/18 11:37:16;;;;;;;29.80;14.00;;;;;;;3.33;74.31;99291.96;101362;1323;73530;-24
2021/11/18 11:39:55;;;;;;;31.90;15.20;;;;;;;3.10;74.83;99288.73;101468;1321;61226;-24
2021/11/18 11:42:52;;;;;;;31.30;14.30;;;;;;;2.87;75.41;99279.48;101331;1322;61087;-24
2021/11/18 11:45:52;;;;;;;22.10;10.40;;;;;;;2.74;76.49;99279.56;101459;1323;73678;-22